Palm Springs, CA

12:16 AM PST on February 06, 2016 (GMT -0800)
Racquet Club Estates | | Change Station
CLOSE
Current Station
Personal Weather Station
Location: Palm Springs, CA
Elevation: 581 ft
Nearby Weather Stations

Elev 581 ft 33.85 °N, 116.54 °W | Updated 12 minutes ago

Clear
Clear
48.2 °F
Feels Like 48 °F
N
0.0
Wind Variable Wind from SSW

Today
High -- | Low -- °F
--% Chance of Precip.
Yesterday
High -- | Low -- °F
Precip. -- in
Pressure 30.39 in
Visibility 10.0 miles
Clouds Clear
Windchill 48 °F
Dew Point 30 °F
Humidity 49%
Rainfall 0.00 in
Snow Depth Not available.
6:39 AM 5:21 PM
Waning Crescent, 7% visible
METAR KPSP 060753Z AUTO 33006KT 10SM CLR 13/M03 A3039 RMK AO2 SLP289 T01331033 402390117 TSNO
Pressure 30.39 in
Visibility 10.0 miles
Clouds Clear
Windchill 48 °F
Dew Point 30 °F
Humidity 49%
Rainfall 0.00 in
Snow Depth Not available.
6:39 AM 5:21 PM
Waning Crescent, 7% visible
METAR KPSP 060753Z AUTO 33006KT 10SM CLR 13/M03 A3039 RMK AO2 SLP289 T01331033 402390117 TSNO

10-Day Weather Forecast

Almanac

Astronomy

Feb. 06, 2016 Rise Set
Actual Time
Civil Twilight
Nautical Twilight
Astronomical Twilight
Moon
Length of Visible Light
Length of Day
Tomorrow will be .
, % of the Moon is Illuminated

Today's Extremes

State Highs State Lows

Community

WunderPhotos

Upload Photos

1,890,933 photos uploaded!

WunderBlog® & News

Nearby

Air Quality

  Air Quality AQ Index Pollutant
Not available.

Snow Depth

Station Depth Elevation

Earthquake Activity

City Distance Mag. Time & Date
Minimum magnitude displayed is 2.5.

Coastal Water Temperatures

Place Temperature

Stations

Nearby Weather Stations

Station Location Temp. Windchill Dew Point Humidity Wind Precip. Elev Updated Type
                   

Watches & Warnings

There are currently no watches in effect.